Time;durP1;ratioP1;P1;durP2;ratioP2;P2;SDS_P1;SDS_P2;PMS_P1;PMS_P2;Temp;Humidity;BMP_temperature;BMP_pressure;BME280_temperature;BME280_humidity;BME280_pressure;Samples;Min_cycle;Max_cycle;Signal;HPM_P1;HPM_P2
2022/11/19 00:00:21;;;;;;;;;;;10.40;74.60;;;;;;4954569;29;19958;-80
2022/11/19 00:02:48;;;;;;;;;;;10.40;74.60;;;;;;4953901;29;19919;-81
2022/11/19 00:05:14;;;;;;;;;;;10.30;74.60;;;;;;4954351;28;19917;-81
2022/11/19 00:07:40;;;;;;;;;;;10.30;74.60;;;;;;4954068;28;19914;-82
2022/11/19 00:10:05;;;;;;;;;;;10.30;74.60;;;;;;4955279;28;19926;-79
2022/11/19 00:15:15;;;;;;;;;;;10.30;74.60;;;;;;4958681;28;19918;-81
2022/11/19 00:17:41;;;;;;;;;;;10.30;74.60;;;;;;4959420;28;19923;-80
2022/11/19 00:20:07;;;;;;;;;;;10.30;74.60;;;;;;4957884;29;19926;-80
2022/11/19 00:22:32;;;;;;;;;;;10.20;74.60;;;;;;4957440;28;20319;-82
2022/11/19 00:24:58;;;;;;;;;;;10.20;74.60;;;;;;4958150;29;19973;-80
2022/11/19 00:27:24;;;;;;;;;;;10.20;74.60;;;;;;4957469;29;19988;-80
2022/11/19 00:29:49;;;;;;;;;;;10.20;74.60;;;;;;4957372;29;19933;-80
2022/11/19 00:32:15;;;;;;;;;;;10.20;74.60;;;;;;4957123;29;20299;-80
2022/11/19 00:34:40;;;;;;;;;;;10.20;74.60;;;;;;4957475;29;20374;-80
2022/11/19 00:37:06;;;;;;;;;;;10.10;74.50;;;;;;4940943;29;20001;-80
2022/11/19 00:39:32;;;;;;;;;;;10.10;74.50;;;;;;4957566;29;19942;-80
2022/11/19 00:41:57;;;;;;;;;;;10.10;74.50;;;;;;4957386;29;19914;-80
2022/11/19 00:44:23;;;;;;;;;;;10.10;74.50;;;;;;4957211;28;19941;-81
2022/11/19 00:46:49;;;;;;;;;;;10.10;74.60;;;;;;4956657;29;19922;-81
2022/11/19 00:49:14;;;;;;;;;;;10.10;74.60;;;;;;4957038;29;19930;-80
2022/11/19 00:51:40;;;;;;;;;;;10.10;74.60;;;;;;4957287;29;20480;-80
2022/11/19 00:54:05;;;;;;;;;;;10.10;74.60;;;;;;4956896;29;19961;-80
2022/11/19 00:56:31;;;;;;;;;;;10.00;74.50;;;;;;4940498;28;19915;-81
2022/11/19 00:58:56;;;;;;;;;;;10.00;74.50;;;;;;4956728;28;20013;-82
2022/11/19 01:01:23;;;;;;;;;;;10.00;74.50;;;;;;4957057;28;20017;-80
2022/11/19 01:03:49;;;;;;;;;;;10.00;74.50;;;;;;4957825;28;19918;-81
2022/11/19 01:06:17;;;;;;;;;;;10.00;74.50;;;;;;4956874;28;19917;-81
2022/11/19 01:08:42;;;;;;;;;;;9.90;74.40;;;;;;4956999;29;19984;-80
2022/11/19 01:11:10;;;;;;;;;;;9.90;74.40;;;;;;4956865;29;19911;-80
2022/11/19 01:13:36;;;;;;;;;;;9.90;74.40;;;;;;4956844;28;20356;-80
2022/11/19 01:16:04;;;;;;;;;;;9.90;74.40;;;;;;4957389;28;20352;-80
2022/11/19 01:18:30;;;;;;;;;;;9.90;74.40;;;;;;4958287;28;19910;-81
2022/11/19 01:20:55;;;;;;;;;;;9.90;74.40;;;;;;4956764;28;19914;-84
2022/11/19 01:23:21;;;;;;;;;;;9.90;74.50;;;;;;4956421;28;20399;-80
2022/11/19 01:25:47;;;;;;;;;;;9.80;74.40;;;;;;4957049;29;19915;-80
2022/11/19 01:28:12;;;;;;;;;;;9.80;74.40;;;;;;4956032;29;19918;-80
2022/11/19 01:30:39;;;;;;;;;;;9.80;74.40;;;;;;4956412;28;20375;-80
2022/11/19 01:33:05;;;;;;;;;;;9.80;74.40;;;;;;4957295;28;19921;-83
2022/11/19 01:35:31;;;;;;;;;;;9.80;74.40;;;;;;4955996;28;20340;-81
2022/11/19 01:37:59;;;;;;;;;;;9.80;74.40;;;;;;4956750;29;19926;-80
2022/11/19 01:40:26;;;;;;;;;;;9.80;74.40;;;;;;4925536;29;19914;-80
2022/11/19 01:42:54;;;;;;;;;;;9.70;74.30;;;;;;4955909;29;19961;-81
2022/11/19 01:45:29;;;;;;;;;;;9.70;74.30;;;;;;4956423;29;19921;-82
2022/11/19 01:47:57;;;;;;;;;;;9.70;74.30;;;;;;4955980;29;20410;-81
2022/11/19 01:50:23;;;;;;;;;;;9.70;74.30;;;;;;4957104;28;19922;-82
2022/11/19 01:52:49;;;;;;;;;;;9.70;74.40;;;;;;4957277;28;19937;-83
2022/11/19 01:55:15;;;;;;;;;;;9.70;74.30;;;;;;4939932;28;19922;-81
2022/11/19 01:57:40;;;;;;;;;;;9.70;74.30;;;;;;4955973;28;19915;-80
2022/11/19 02:00:07;;;;;;;;;;;9.60;74.30;;;;;;4955684;28;20295;-82
2022/11/19 02:02:33;;;;;;;;;;;9.70;74.40;;;;;;4955309;29;19922;-79
2022/11/19 02:04:59;;;;;;;;;;;9.60;74.30;;;;;;4939895;29;20348;-84
2022/11/19 02:07:28;;;;;;;;;;;9.60;74.30;;;;;;4955659;28;19926;-80
2022/11/19 02:09:57;;;;;;;;;;;9.60;74.30;;;;;;4955777;28;19927;-80
2022/11/19 02:12:26;;;;;;;;;;;9.60;74.30;;;;;;4955644;28;20375;-82
2022/11/19 02:15:10;;;;;;;;;;;9.60;74.30;;;;;;4956553;28;19914;-80
2022/11/19 02:17:42;;;;;;;;;;;9.60;74.30;;;;;;4955218;29;19930;-80
2022/11/19 02:20:26;;;;;;;;;;;9.50;74.20;;;;;;4955702;29;19915;-80
2022/11/19 02:22:55;;;;;;;;;;;9.50;74.20;;;;;;4955678;28;19919;-84
2022/11/19 02:25:30;;;;;;;;;;;9.50;74.20;;;;;;4955704;29;19965;-83
2022/11/19 02:28:14;;;;;;;;;;;9.50;74.30;;;;;;4955688;29;19918;-80
2022/11/19 02:30:46;;;;;;;;;;;9.40;74.20;;;;;;4955571;28;20291;-81
2022/11/19 02:33:18;;;;;;;;;;;9.40;74.20;;;;;;4955912;28;19969;-80
2022/11/19 02:35:46;;;;;;;;;;;9.40;74.20;;;;;;4954718;28;19921;-80
2022/11/19 02:38:17;;;;;;;;;;;9.40;74.20;;;;;;4955422;28;19915;-80
2022/11/19 02:40:48;;;;;;;;;;;9.40;74.20;;;;;;4956006;28;19918;-80
2022/11/19 02:43:14;;;;;;;;;;;9.40;74.20;;;;;;4954959;28;19918;-80
2022/11/19 02:45:43;;;;;;;;;;;9.40;74.20;;;;;;4955852;28;20124;-84
2022/11/19 02:48:18;;;;;;;;;;;9.40;74.10;;;;;;4954943;29;20005;-82
2022/11/19 02:50:47;;;;;;;;;;;9.30;74.10;;;;;;4955243;28;20487;-80
2022/11/19 02:53:13;;;;;;;;;;;9.40;74.10;;;;;;4954725;29;19917;-80
2022/11/19 02:55:38;;;;;;;;;;;9.30;74.10;;;;;;4955842;28;19914;-80
2022/11/19 03:04:28;;;;;;;;;;;9.30;74.10;;;;;;4956682;28;19969;-81
2022/11/19 03:06:44;;;;;;;;;;;9.20;74.10;;;;;;4956809;28;19918;-79
2022/11/19 03:09:12;;;;;;;;;;;9.20;74.10;;;;;;4941877;28;22203;-80
2022/11/19 03:11:39;;;;;;;;;;;9.20;74.10;;;;;;4938880;29;19972;-81
2022/11/19 03:17:02;;;;;;;;;;;9.20;74.10;;;;;;4954385;29;19922;-84
2022/11/19 03:19:46;;;;;;;;;;;9.20;74.10;;;;;;4954488;29;19922;-82
2022/11/19 03:22:17;;;;;;;;;;;9.10;74.00;;;;;;4955111;29;19914;-80
2022/11/19 03:24:49;;;;;;;;;;;9.10;74.00;;;;;;4954608;29;19915;-80
2022/11/19 03:27:26;;;;;;;;;;;9.10;74.00;;;;;;4954578;29;19918;-80
2022/11/19 03:29:53;;;;;;;;;;;9.10;74.00;;;;;;4955232;29;19923;-81
2022/11/19 03:32:21;;;;;;;;;;;9.10;74.00;;;;;;4955855;28;19911;-83
2022/11/19 03:34:49;;;;;;;;;;;9.10;74.00;;;;;;4954716;29;19948;-80
2022/11/19 03:37:16;;;;;;;;;;;9.10;74.00;;;;;;4954470;28;20001;-80
2022/11/19 03:39:42;;;;;;;;;;;9.10;73.90;;;;;;4955208;29;20049;-80
2022/11/19 03:42:10;;;;;;;;;;;9.00;73.90;;;;;;4954403;28;19915;-81
2022/11/19 03:44:39;;;;;;;;;;;9.00;73.90;;;;;;4955627;28;19910;-80
2022/11/19 03:47:08;;;;;;;;;;;9.00;73.90;;;;;;4942119;29;19942;-81
2022/11/19 03:49:36;;;;;;;;;;;9.00;73.90;;;;;;4958087;28;19926;-81
2022/11/19 03:52:06;;;;;;;;;;;8.90;73.80;;;;;;4959128;28;20339;-80
2022/11/19 03:54:31;;;;;;;;;;;8.90;73.80;;;;;;4958132;28;19910;-81
2022/11/19 03:56:58;;;;;;;;;;;8.90;73.80;;;;;;4958375;28;19915;-80
2022/11/19 03:59:23;;;;;;;;;;;8.90;73.80;;;;;;4942012;29;19910;-80
2022/11/19 04:01:51;;;;;;;;;;;8.90;73.80;;;;;;4958310;28;19965;-81
2022/11/19 04:07:17;;;;;;;;;;;8.90;73.80;;;;;;4958823;29;19925;-82
2022/11/19 04:09:43;;;;;;;;;;;8.80;73.80;;;;;;4958156;28;20009;-81
2022/11/19 04:12:17;;;;;;;;;;;8.90;73.80;;;;;;4941989;29;19953;-80
2022/11/19 04:14:42;;;;;;;;;;;8.80;73.80;;;;;;4957797;29;19922;-80
2022/11/19 04:17:08;;;;;;;;;;;8.80;73.80;;;;;;4957794;28;19927;-80
2022/11/19 04:19:34;;;;;;;;;;;8.80;73.80;;;;;;4957824;29;19973;-80
2022/11/19 04:21:59;;;;;;;;;;;8.80;73.80;;;;;;4958965;28;19919;-80
2022/11/19 04:24:25;;;;;;;;;;;8.80;73.80;;;;;;4957932;29;19915;-81
2022/11/19 04:26:50;;;;;;;;;;;8.70;73.70;;;;;;4957601;28;19915;-80
2022/11/19 04:29:16;;;;;;;;;;;8.70;73.70;;;;;;4957700;29;19933;-83
2022/11/19 04:31:42;;;;;;;;;;;8.70;73.70;;;;;;4925719;29;20000;-80
2022/11/19 04:34:08;;;;;;;;;;;8.70;73.70;;;;;;4959007;28;19953;-81
2022/11/19 04:36:33;;;;;;;;;;;8.70;73.70;;;;;;4958414;28;19910;-80
2022/11/19 04:38:59;;;;;;;;;;;8.60;73.70;;;;;;4941516;29;19969;-84
2022/11/19 04:41:24;;;;;;;;;;;8.60;73.70;;;;;;4957475;29;19918;-80
2022/11/19 04:43:50;;;;;;;;;;;8.70;73.70;;;;;;4957249;28;20344;-81
2022/11/19 04:46:16;;;;;;;;;;;8.60;73.70;;;;;;4942076;28;19938;-80
2022/11/19 04:48:41;;;;;;;;;;;8.60;73.60;;;;;;4941393;29;19923;-81
2022/11/19 04:51:07;;;;;;;;;;;8.60;73.70;;;;;;4956991;28;19962;-81
2022/11/19 04:53:33;;;;;;;;;;;8.60;73.70;;;;;;4940859;29;19926;-81
2022/11/19 04:55:58;;;;;;;;;;;8.60;73.70;;;;;;4957806;28;19917;-81
2022/11/19 04:58:24;;;;;;;;;;;8.50;73.60;;;;;;4957222;28;20278;-81
2022/11/19 05:00:49;;;;;;;;;;;8.50;73.60;;;;;;4925078;29;19958;-81
2022/11/19 05:03:15;;;;;;;;;;;8.50;73.60;;;;;;4924745;29;19925;-80
2022/11/19 05:05:40;;;;;;;;;;;8.50;73.60;;;;;;4940742;29;19915;-80
2022/11/19 05:08:06;;;;;;;;;;;8.50;73.60;;;;;;4940743;29;19919;-81
2022/11/19 05:10:32;;;;;;;;;;;8.50;73.60;;;;;;4956686;28;19932;-84
2022/11/19 05:12:57;;;;;;;;;;;8.40;73.60;;;;;;4956416;28;20057;-80
2022/11/19 05:15:23;;;;;;;;;;;8.40;73.60;;;;;;4956860;29;19942;-81
2022/11/19 05:17:49;;;;;;;;;;;8.40;74.20;;;;;;4940382;29;19926;-81
2022/11/19 05:20:15;;;;;;;;;;;8.40;73.60;;;;;;4956555;29;19923;-81
2022/11/19 05:22:41;;;;;;;;;;;8.40;73.60;;;;;;4941216;29;20018;-81
2022/11/19 05:25:06;;;;;;;;;;;8.40;73.60;;;;;;4957590;28;19914;-81
2022/11/19 05:27:32;;;;;;;;;;;8.40;73.60;;;;;;4941045;29;19925;-81
2022/11/19 05:29:58;;;;;;;;;;;8.40;73.50;;;;;;4924338;29;19973;-81
2022/11/19 05:32:23;;;;;;;;;;;8.40;73.50;;;;;;4956020;29;19957;-83
2022/11/19 05:34:51;;;;;;;;;;;8.30;73.50;;;;;;4940353;29;19973;-83
2022/11/19 05:37:17;;;;;;;;;;;8.30;73.50;;;;;;4956080;28;19961;-80
2022/11/19 05:39:43;;;;;;;;;;;8.30;73.50;;;;;;4939989;29;20360;-81
2022/11/19 05:42:08;;;;;;;;;;;8.30;73.50;;;;;;4955772;29;20371;-83
2022/11/19 05:44:34;;;;;;;;;;;8.30;73.50;;;;;;4956959;28;19922;-83
2022/11/19 05:47:00;;;;;;;;;;;8.30;73.50;;;;;;4956390;28;19954;-81
2022/11/19 05:49:25;;;;;;;;;;;8.20;73.40;;;;;;4955966;28;19922;-80
2022/11/19 05:51:51;;;;;;;;;;;8.30;73.50;;;;;;4940110;29;19938;-81
2022/11/19 05:54:17;;;;;;;;;;;8.20;73.40;;;;;;4956051;28;20442;-81
2022/11/19 05:56:42;;;;;;;;;;;8.20;73.40;;;;;;4956098;28;19966;-80
2022/11/19 05:59:08;;;;;;;;;;;8.20;73.40;;;;;;4956096;29;20386;-81
2022/11/19 06:01:34;;;;;;;;;;;8.20;73.40;;;;;;4940273;29;20129;-80
2022/11/19 06:03:59;;;;;;;;;;;8.20;73.40;;;;;;4957124;28;20384;-80
2022/11/19 06:06:25;;;;;;;;;;;8.20;73.40;;;;;;4956142;28;19914;-80
2022/11/19 06:08:51;;;;;;;;;;;8.20;73.50;;;;;;4939365;29;20352;-79
2022/11/19 06:14:01;;;;;;;;;;;8.10;73.40;;;;;;4956848;29;19923;-81
2022/11/19 06:16:27;;;;;;;;;;;8.10;73.40;;;;;;4955369;28;20274;-83
2022/11/19 06:18:52;;;;;;;;;;;8.10;73.40;;;;;;4939219;29;19957;-82
2022/11/19 06:21:18;;;;;;;;;;;8.10;73.40;;;;;;4955438;28;20360;-85
2022/11/19 06:23:43;;;;;;;;;;;8.10;73.40;;;;;;4939760;29;19922;-82
2022/11/19 06:26:09;;;;;;;;;;;8.00;73.40;;;;;;4955884;28;20385;-82
2022/11/19 06:28:35;;;;;;;;;;;8.00;73.30;;;;;;4954841;28;19918;-82
2022/11/19 06:31:01;;;;;;;;;;;8.00;73.30;;;;;;4955234;29;19918;-81
2022/11/19 06:33:26;;;;;;;;;;;8.00;73.30;;;;;;4955568;28;19919;-81
2022/11/19 06:35:52;;;;;;;;;;;8.00;73.40;;;;;;4939544;29;19922;-81
2022/11/19 06:38:18;;;;;;;;;;;8.00;73.30;;;;;;4955576;28;20352;-82
2022/11/19 06:40:46;;;;;;;;;;;8.00;73.30;;;;;;4955062;28;19918;-81
2022/11/19 06:43:12;;;;;;;;;;;8.00;73.40;;;;;;4955282;28;19962;-81
2022/11/19 06:45:37;;;;;;;;;;;8.00;73.30;;;;;;4939964;29;19918;-80
2022/11/19 06:48:03;;;;;;;;;;;8.00;73.30;;;;;;4955176;29;19910;-81
2022/11/19 06:50:29;;;;;;;;;;;8.00;73.40;;;;;;4955312;28;20311;-81
2022/11/19 06:52:55;;;;;;;;;;;7.90;73.30;;;;;;4954974;28;20253;-80
2022/11/19 06:55:21;;;;;;;;;;;7.90;73.30;;;;;;4955027;29;19914;-80
2022/11/19 06:57:46;;;;;;;;;;;7.90;73.30;;;;;;4954566;29;20355;-81
2022/11/19 07:00:12;;;;;;;;;;;7.90;73.30;;;;;;4954469;28;20010;-80
2022/11/19 07:02:38;;;;;;;;;;;7.90;73.30;;;;;;4954948;28;19915;-81
2022/11/19 07:05:04;;;;;;;;;;;7.90;73.30;;;;;;4939077;29;19918;-81
2022/11/19 07:07:30;;;;;;;;;;;7.80;73.20;;;;;;4938965;29;19914;-81
2022/11/19 07:09:56;;;;;;;;;;;7.80;73.20;;;;;;4954559;29;19934;-80
2022/11/19 07:12:22;;;;;;;;;;;7.80;73.20;;;;;;4954463;28;19957;-80
2022/11/19 07:14:47;;;;;;;;;;;7.80;73.20;;;;;;4955218;29;19925;-80
2022/11/19 07:17:13;;;;;;;;;;;7.80;73.20;;;;;;4954639;29;19923;-82
2022/11/19 07:19:38;;;;;;;;;;;7.80;73.20;;;;;;4955075;29;19918;-81
2022/11/19 07:22:04;;;;;;;;;;;7.80;73.20;;;;;;4954923;28;19918;-81
2022/11/19 07:24:30;;;;;;;;;;;7.80;73.20;;;;;;4939164;29;19915;-81
2022/11/19 07:26:56;;;;;;;;;;;7.80;73.20;;;;;;4954482;29;19919;-80
2022/11/19 07:29:21;;;;;;;;;;;7.80;73.20;;;;;;4954594;28;20276;-81
2022/11/19 07:31:49;;;;;;;;;;;7.70;73.10;;;;;;4954869;28;19997;-82
2022/11/19 07:34:15;;;;;;;;;;;7.70;73.10;;;;;;4923291;29;19919;-81
2022/11/19 07:36:41;;;;;;;;;;;7.70;73.20;;;;;;4954617;28;19921;-80
2022/11/19 07:39:07;;;;;;;;;;;7.70;73.20;;;;;;4955660;28;20005;-81
2022/11/19 07:44:17;;;;;;;;;;;7.70;73.20;;;;;;4955265;29;20358;-80
2022/11/19 07:46:43;;;;;;;;;;;7.70;73.10;;;;;;4954698;28;19961;-80
2022/11/19 07:49:08;;;;;;;;;;;7.60;73.10;;;;;;4954836;29;20398;-83
2022/11/19 07:51:34;;;;;;;;;;;7.60;73.10;;;;;;4938280;29;19921;-80
2022/11/19 07:54:00;;;;;;;;;;;7.60;73.10;;;;;;4938390;29;19914;-79
2022/11/19 07:56:25;;;;;;;;;;;7.60;73.10;;;;;;4954256;29;20303;-81
2022/11/19 07:58:51;;;;;;;;;;;7.60;73.10;;;;;;4955130;28;19907;-79
2022/11/19 08:01:18;;;;;;;;;;;7.60;73.10;;;;;;4938459;29;20324;-80
2022/11/19 08:03:45;;;;;;;;;;;7.60;73.10;;;;;;4954396;28;19992;-80
2022/11/19 08:06:11;;;;;;;;;;;7.60;73.10;;;;;;4954461;28;20004;-79
2022/11/19 08:08:37;;;;;;;;;;;7.50;73.00;;;;;;4954088;29;20375;-80
2022/11/19 08:11:04;;;;;;;;;;;7.50;73.00;;;;;;4954678;29;19921;-80
2022/11/19 08:13:30;;;;;;;;;;;7.50;73.00;;;;;;4955065;28;20292;-81
2022/11/19 08:15:59;;;;;;;;;;;7.50;73.00;;;;;;4955077;28;19918;-79
2022/11/19 08:18:25;;;;;;;;;;;7.50;73.00;;;;;;4954279;28;19927;-79
2022/11/19 08:20:50;;;;;;;;;;;7.50;73.00;;;;;;4922631;29;19925;-79
2022/11/19 08:23:16;;;;;;;;;;;7.50;73.00;;;;;;4937866;29;19925;-80
2022/11/19 08:25:43;;;;;;;;;;;7.50;73.00;;;;;;4954375;29;20017;-82
2022/11/19 08:28:09;;;;;;;;;;;7.50;73.00;;;;;;4938293;29;19960;-79
2022/11/19 08:30:34;;;;;;;;;;;7.50;73.00;;;;;;4953688;28;19973;-79
2022/11/19 08:33:00;;;;;;;;;;;7.50;73.00;;;;;;4957713;29;19923;-79
2022/11/19 08:35:26;;;;;;;;;;;7.40;72.90;;;;;;4957660;28;19914;-79
2022/11/19 08:37:51;;;;;;;;;;;7.40;72.90;;;;;;4957431;28;20339;-81
2022/11/19 08:40:17;;;;;;;;;;;7.40;72.90;;;;;;4958287;28;19914;-81
2022/11/19 08:43:01;;;;;;;;;;;7.40;72.90;;;;;;4958205;28;19919;-81
2022/11/19 08:45:28;;;;;;;;;;;7.40;72.90;;;;;;4943983;29;19926;-79
2022/11/19 08:47:54;;;;;;;;;;;7.40;72.90;;;;;;4956863;29;19921;-80
2022/11/19 08:50:19;;;;;;;;;;;7.40;72.90;;;;;;4957114;29;20053;-81
2022/11/19 08:52:45;;;;;;;;;;;7.40;72.90;;;;;;4957082;29;19953;-80
2022/11/19 08:55:11;;;;;;;;;;;7.40;72.90;;;;;;4956990;28;19914;-80
2022/11/19 08:57:37;;;;;;;;;;;7.40;72.90;;;;;;4941361;29;19950;-82
2022/11/19 09:00:03;;;;;;;;;;;7.40;72.90;;;;;;4957065;29;20005;-79
2022/11/19 09:02:28;;;;;;;;;;;7.40;72.90;;;;;;4956760;29;19950;-79
2022/11/19 09:04:54;;;;;;;;;;;7.40;72.90;;;;;;4956693;29;19922;-80
2022/11/19 09:07:19;;;;;;;;;;;7.40;72.90;;;;;;4957060;28;19914;-80
2022/11/19 09:09:46;;;;;;;;;;;7.30;72.80;;;;;;4956500;29;20400;-80
2022/11/19 09:12:11;;;;;;;;;;;7.30;72.80;;;;;;4956798;28;20283;-80
2022/11/19 09:14:37;;;;;;;;;;;7.30;72.80;;;;;;4957813;28;19919;-80
2022/11/19 09:17:02;;;;;;;;;;;7.30;72.80;;;;;;4956344;28;19934;-80
2022/11/19 09:19:28;;;;;;;;;;;7.30;72.80;;;;;;4956818;28;20383;-80
2022/11/19 09:21:54;;;;;;;;;;;7.30;72.80;;;;;;4956542;28;19950;-80
2022/11/19 09:24:19;;;;;;;;;;;7.30;72.80;;;;;;4957593;28;19915;-82
2022/11/19 09:26:45;;;;;;;;;;;7.30;72.80;;;;;;4956295;28;19915;-82
2022/11/19 09:29:11;;;;;;;;;;;7.30;72.70;;;;;;4956105;29;19929;-80
2022/11/19 09:31:36;;;;;;;;;;;7.20;72.70;;;;;;4956352;28;20426;-80
2022/11/19 09:34:02;;;;;;;;;;;7.30;72.80;;;;;;4956091;29;19914;-80
2022/11/19 09:36:28;;;;;;;;;;;7.30;72.80;;;;;;4940135;29;19910;-80
2022/11/19 09:38:57;;;;;;;;;;;7.30;72.70;;;;;;4956454;29;19921;-80
2022/11/19 09:41:25;;;;;;;;;;;7.20;72.70;;;;;;4957564;28;19921;-82
2022/11/19 09:44:09;;;;;;;;;;;7.20;72.70;;;;;;4956066;28;20411;-82
2022/11/19 09:46:38;;;;;;;;;;;7.20;72.70;;;;;;4955778;29;20001;-80
2022/11/19 09:49:09;;;;;;;;;;;7.20;72.70;;;;;;4955899;28;19973;-81
2022/11/19 09:51:37;;;;;;;;;;;7.20;72.70;;;;;;4955742;29;19914;-81
2022/11/19 09:54:06;;;;;;;;;;;7.20;72.70;;;;;;4956592;28;20348;-80
2022/11/19 09:56:40;;;;;;;;;;;7.20;72.70;;;;;;4956637;28;19914;-80
2022/11/19 09:59:24;;;;;;;;;;;7.20;72.70;;;;;;4956656;28;19941;-80
2022/11/19 10:01:51;;;;;;;;;;;7.20;72.70;;;;;;4955771;29;19969;-83
2022/11/19 10:04:20;;;;;;;;;;;7.20;72.70;;;;;;4955829;28;19921;-80
2022/11/19 10:06:48;;;;;;;;;;;7.20;72.70;;;;;;4939599;29;19919;-81
2022/11/19 10:09:18;;;;;;;;;;;7.20;72.70;;;;;;4955247;29;19919;-80
2022/11/19 10:11:53;;;;;;;;;;;7.10;72.60;;;;;;4955330;29;19981;-81
2022/11/19 10:14:52;;;;;;;;;;;7.10;72.60;;;;;;4956297;29;20390;-80
2022/11/19 10:17:27;;;;;;;;;;;7.10;72.60;;;;;;4954400;29;19938;-80
2022/11/19 10:20:02;;;;;;;;;;;7.10;72.60;;;;;;4955611;28;19922;-80
2022/11/19 10:22:33;;;;;;;;;;;7.10;72.60;;;;;;4939362;29;19914;-80
2022/11/19 10:24:59;;;;;;;;;;;7.10;72.60;;;;;;4955466;29;19941;-79
2022/11/19 10:27:36;;;;;;;;;;;7.10;72.60;;;;;;4954933;29;19964;-81
2022/11/19 10:30:05;;;;;;;;;;;7.10;72.60;;;;;;4955969;28;19929;-80
2022/11/19 10:32:34;;;;;;;;;;;7.00;72.50;;;;;;4955243;29;19911;-83
2022/11/19 10:35:06;;;;;;;;;;;7.10;72.60;;;;;;4954918;29;20384;-82
2022/11/19 10:37:39;;;;;;;;;;;7.10;72.60;;;;;;4955432;28;19914;-81
2022/11/19 10:40:07;;;;;;;;;;;7.00;72.50;;;;;;4954869;29;20314;-83
2022/11/19 10:42:37;;;;;;;;;;;7.00;72.50;;;;;;4954652;29;19911;-82
2022/11/19 10:45:14;;;;;;;;;;;7.00;72.50;;;;;;4939104;29;19942;-82
2022/11/19 10:47:49;;;;;;;;;;;7.00;72.50;;;;;;4955202;28;20008;-81
2022/11/19 10:50:19;;;;;;;;;;;7.00;72.50;;;;;;4955516;29;19926;-81
2022/11/19 10:53:08;;;;;;;;;;;7.00;72.50;;;;;;4954879;29;19919;-81
2022/11/19 10:55:36;;;;;;;;;;;7.00;72.50;;;;;;4955487;28;19910;-84
2022/11/19 10:58:02;;;;;;;;;;;7.00;72.50;;;;;;4954802;28;19911;-81
2022/11/19 11:00:27;;;;;;;;;;;7.00;72.50;;;;;;4954996;28;19914;-81
2022/11/19 11:02:57;;;;;;;;;;;7.00;72.50;;;;;;4939509;29;19914;-80
2022/11/19 11:05:23;;;;;;;;;;;7.00;72.50;;;;;;4938673;29;19914;-81
2022/11/19 11:07:58;;;;;;;;;;;6.90;72.40;;;;;;4922503;29;19914;-80
2022/11/19 11:10:50;;;;;;;;;;;7.00;72.50;;;;;;4955803;28;20033;-81
2022/11/19 11:16:15;;;;;;;;;;;6.90;72.40;;;;;;4955170;29;20292;-81
2022/11/19 11:18:40;;;;;;;;;;;6.90;72.40;;;;;;4954230;29;19923;-84
2022/11/19 11:21:09;;;;;;;;;;;6.90;72.40;;;;;;4954961;29;19921;-85
2022/11/19 11:23:44;;;;;;;;;;;6.90;72.40;;;;;;4954829;29;20333;-83
2022/11/19 11:26:11;;;;;;;;;;;6.90;72.40;;;;;;4956012;28;19937;-82
2022/11/19 11:28:52;;;;;;;;;;;6.90;72.40;;;;;;4956015;28;19910;-83
2022/11/19 11:31:27;;;;;;;;;;;6.90;72.40;;;;;;4938713;29;19914;-80
2022/11/19 11:33:54;;;;;;;;;;;6.80;72.40;;;;;;4955059;28;19962;-81
2022/11/19 11:36:21;;;;;;;;;;;6.90;72.40;;;;;;4954730;28;19934;-82
2022/11/19 11:38:49;;;;;;;;;;;6.90;72.40;;;;;;4954746;29;19938;-81
2022/11/19 11:41:16;;;;;;;;;;;6.90;72.40;;;;;;4938735;29;20295;-81
2022/11/19 11:44:00;;;;;;;;;;;6.80;72.30;;;;;;4955068;29;19914;-82
2022/11/19 11:46:44;;;;;;;;;;;6.80;72.40;;;;;;4954790;29;19922;-84
2022/11/19 11:49:19;;;;;;;;;;;6.80;72.30;;;;;;4954949;29;19922;-83
2022/11/19 11:51:45;;;;;;;;;;;6.80;72.30;;;;;;4954618;29;19919;-82
2022/11/19 11:54:16;;;;;;;;;;;6.80;72.30;;;;;;4938766;28;19914;-82
2022/11/19 11:56:42;;;;;;;;;;;6.80;72.30;;;;;;4955546;28;20492;-82
2022/11/19 11:59:23;;;;;;;;;;;6.80;72.30;;;;;;4955353;29;19914;-84
2022/11/19 12:01:53;;;;;;;;;;;6.80;72.30;;;;;;4954904;29;19997;-83
2022/11/19 12:04:19;;;;;;;;;;;6.80;72.30;;;;;;4956293;28;19910;-83
2022/11/19 12:06:51;;;;;;;;;;;6.80;72.30;;;;;;4940935;29;19929;-85
2022/11/19 12:09:42;;;;;;;;;;;6.80;72.30;;;;;;4959280;28;20063;-83
2022/11/19 12:12:15;;;;;;;;;;;6.80;72.30;;;;;;4959143;28;19915;-83
2022/11/19 12:14:41;;;;;;;;;;;6.80;72.30;;;;;;4958640;28;19921;-82
2022/11/19 12:17:25;;;;;;;;;;;6.80;72.30;;;;;;4958551;28;19997;-83
2022/11/19 12:19:54;;;;;;;;;;;6.80;72.30;;;;;;4959072;28;19914;-82
2022/11/19 12:22:38;;;;;;;;;;;6.90;72.30;;;;;;4957884;28;19914;-83
2022/11/19 12:25:03;;;;;;;;;;;6.80;72.30;;;;;;4958297;29;19914;-83
2022/11/19 12:27:48;;;;;;;;;;;6.80;72.20;;;;;;4958033;28;19911;-82
2022/11/19 12:30:21;;;;;;;;;;;6.80;72.20;;;;;;4958834;28;19929;-82
2022/11/19 12:33:02;;;;;;;;;;;6.90;72.30;;;;;;4957993;29;19937;-84
2022/11/19 12:35:43;;;;;;;;;;;6.80;72.20;;;;;;4959259;29;19977;-84
2022/11/19 12:38:11;;;;;;;;;;;6.90;72.30;;;;;;4957853;29;19914;-84
2022/11/19 12:40:52;;;;;;;;;;;6.80;72.20;;;;;;4958550;29;19957;-84
2022/11/19 12:43:26;;;;;;;;;;;6.90;72.30;;;;;;4958255;29;19915;-84
2022/11/19 12:46:09;;;;;;;;;;;6.90;72.90;;;;;;4942021;29;19969;-83
2022/11/19 12:48:53;;;;;;;;;;;6.90;72.30;;;;;;4957872;28;19915;-85
2022/11/19 12:51:32;;;;;;;;;;;6.90;72.30;;;;;;4958212;28;19962;-84
2022/11/19 12:54:05;;;;;;;;;;;6.90;72.20;;;;;;4957580;28;19965;-84
2022/11/19 12:56:54;;;;;;;;;;;6.90;72.20;;;;;;4958267;28;20287;-86
2022/11/19 12:59:40;;;;;;;;;;;6.90;72.20;;;;;;4958273;29;19921;-83
2022/11/19 13:02:12;;;;;;;;;;;6.90;72.20;;;;;;4957244;28;19918;-84
2022/11/19 13:04:41;;;;;;;;;;;6.90;72.20;;;;;;4957368;29;19915;-84
2022/11/19 13:07:06;;;;;;;;;;;6.90;72.20;;;;;;4958149;28;19934;-85
2022/11/19 13:09:46;;;;;;;;;;;7.00;72.20;;;;;;4957426;29;19937;-84
2022/11/19 13:12:17;;;;;;;;;;;7.00;72.20;;;;;;4956712;29;19965;-84
2022/11/19 13:14:45;;;;;;;;;;;6.90;72.10;;;;;;4957792;28;19919;-84
2022/11/19 13:17:17;;;;;;;;;;;6.90;72.10;;;;;;4956020;28;19949;-84
2022/11/19 13:19:45;;;;;;;;;;;7.00;72.20;;;;;;4958010;28;19915;-86
2022/11/19 13:22:14;;;;;;;;;;;6.90;72.10;;;;;;4957239;28;19914;-84
2022/11/19 13:24:45;;;;;;;;;;;7.00;72.20;;;;;;4956917;28;19959;-84
2022/11/19 13:27:15;;;;;;;;;;;7.00;72.20;;;;;;4956485;29;19914;-84
2022/11/19 13:29:46;;;;;;;;;;;7.00;72.20;;;;;;4956876;28;19922;-84
2022/11/19 13:32:19;;;;;;;;;;;7.00;72.20;;;;;;4956888;28;19958;-85
2022/11/19 13:35:03;;;;;;;;;;;7.00;72.20;;;;;;4956441;28;19956;-85
2022/11/19 13:37:34;;;;;;;;;;;7.00;72.80;;;;;;4957715;28;20379;-84
2022/11/19 13:40:04;;;;;;;;;;;7.00;72.10;;;;;;4957031;28;19961;-85
2022/11/19 13:45:15;;;;;;;;;;;7.00;72.10;;;;;;4957998;28;19926;-84
2022/11/19 13:47:55;;;;;;;;;;;7.00;72.10;;;;;;4957041;28;19915;-86
2022/11/19 13:50:23;;;;;;;;;;;7.00;72.10;;;;;;4956591;28;19973;-87
2022/11/19 13:52:53;;;;;;;;;;;7.10;72.10;;;;;;4956445;28;19946;-85
2022/11/19 13:55:21;;;;;;;;;;;7.10;72.10;;;;;;4955641;28;19914;-84
2022/11/19 13:57:47;;;;;;;;;;;7.00;72.00;;;;;;4956042;28;19910;-85
2022/11/19 14:00:24;;;;;;;;;;;7.10;72.10;;;;;;4940176;29;19914;-85
2022/11/19 14:02:56;;;;;;;;;;;7.10;72.10;;;;;;4957155;28;19915;-84
2022/11/19 14:05:40;;;;;;;;;;;7.10;72.10;;;;;;4955797;28;19915;-86
2022/11/19 14:08:29;;;;;;;;;;;7.10;72.10;;;;;;4955950;29;20392;-85
2022/11/19 14:11:10;;;;;;;;;;;7.10;72.00;;;;;;4956050;28;19927;-84
2022/11/19 14:13:51;;;;;;;;;;;7.10;72.00;;;;;;4955824;28;19914;-85
2022/11/19 14:27:51;;;;;;;;;;;7.00;72.00;;;;;;4955576;29;19915;-86
2022/11/19 14:30:18;;;;;;;;;;;7.00;72.00;;;;;;4954792;28;19926;-84
2022/11/19 14:32:45;;;;;;;;;;;7.10;72.10;;;;;;4956034;28;19914;-84
2022/11/19 14:35:19;;;;;;;;;;;7.10;72.00;;;;;;4955074;29;19911;-84
2022/11/19 14:37:46;;;;;;;;;;;7.10;72.00;;;;;;4956313;28;19914;-83
2022/11/19 14:40:11;;;;;;;;;;;7.10;72.00;;;;;;4955520;28;19914;-83
2022/11/19 14:44:06;;;;;;;;;;;7.10;71.90;;;;;;4955020;28;19914;-84
2022/11/19 14:46:04;;;;;;;;;;;7.10;71.90;;;;;;4955495;28;20260;-84
2022/11/19 14:48:31;;;;;;;;;;;7.10;71.90;;;;;;4955100;29;19936;-83
2022/11/19 14:51:05;;;;;;;;;;;7.20;72.60;;;;;;4955760;28;19961;-84
2022/11/19 14:53:31;;;;;;;;;;;7.20;71.90;;;;;;4956394;29;19921;-84
2022/11/19 14:55:58;;;;;;;;;;;7.20;71.90;;;;;;4956018;28;19918;-84
2022/11/19 14:58:23;;;;;;;;;;;7.20;71.80;;;;;;4939267;29;20386;-84
2022/11/19 15:01:04;;;;;;;;;;;7.20;71.80;;;;;;4956209;28;19914;-84
2022/11/19 15:03:30;;;;;;;;;;;7.20;71.80;;;;;;4954594;29;19915;-85
2022/11/19 15:06:04;;;;;;;;;;;7.20;71.80;;;;;;4956120;28;19938;-84
2022/11/19 15:08:50;;;;;;;;;;;7.20;71.80;;;;;;4955362;28;19921;-85
2022/11/19 15:11:16;;;;;;;;;;;7.20;71.70;;;;;;4939017;29;19937;-85
2022/11/19 15:14:05;;;;;;;;;;;7.20;71.80;;;;;;4955159;28;19907;-86
2022/11/19 15:16:32;;;;;;;;;;;7.20;71.70;;;;;;4954371;28;19936;-84